Time;durP1;ratioP1;P1;durP2;ratioP2;P2;SDS_P1;SDS_P2;PMS_P1;PMS_P2;Temp;Humidity;BMP_temperature;BMP_pressure;BME280_temperature;BME280_humidity;BME280_pressure;Samples;Min_cycle;Max_cycle;Signal;HPM_P1;HPM_P2
2022/09/22 00:01:20;;;;;;;17.20;15.43;;;;;;;8.67;95.44;99523.66;1807400;78;21333;-71
2022/09/22 00:03:54;;;;;;;13.48;12.07;;;;;;;8.56;95.92;99523.48;1806448;77;21557;-73
2022/09/22 00:06:23;;;;;;;;;;;;;;;8.58;96.31;99515.38;1796672;78;20981;-74
2022/09/22 00:08:53;;;;;;;17.57;15.98;;;;;;;8.66;96.01;99524.66;1782011;78;21244;-72
2022/09/22 00:11:27;;;;;;;18.95;17.05;;;;;;;8.57;96.35;99522.47;1810071;78;21021;-72
2022/09/22 00:13:58;;;;;;;15.48;14.00;;;;;;;8.50;96.82;99525.45;1822752;77;21529;-70
2022/09/22 00:16:31;;;;;;;17.17;15.45;;;;;;;8.56;96.88;99520.83;1781247;78;21496;-72
2022/09/22 00:18:57;;;;;;;16.95;15.30;;;;;;;8.68;96.63;99526.66;1797320;78;21048;-71
2022/09/22 00:21:27;;;;;;;20.02;17.92;;;;;;;8.66;96.75;99523.34;1815445;78;21191;-73
2022/09/22 00:23:54;;;;;;;15.90;14.35;;;;;;;8.62;96.98;99526.80;1791135;78;21477;-72
2022/09/22 00:26:22;;;;;;;16.65;15.05;;;;;;;8.66;96.89;99521.52;1793887;78;21506;-72
2022/09/22 00:28:51;;;;;;;18.12;16.27;;;;;;;8.74;96.52;99526.00;1765254;80;21038;-71
2022/09/22 00:31:21;;;;;;;17.82;16.02;;;;;;;8.72;96.71;99526.66;1781584;79;21557;-74
2022/09/22 00:33:47;;;;;;;16.23;14.63;;;;;;;8.66;97.00;99522.84;1808889;78;21111;-73
2022/09/22 00:36:14;;;;;;;14.23;12.60;;;;;;;8.63;97.09;99524.97;1823513;78;21016;-73
2022/09/22 00:38:42;;;;;;;13.32;12.03;;;;;;;8.71;96.84;99526.34;1792238;78;21522;-73
2022/09/22 00:41:24;;;;;;;12.15;10.95;;;;;;;8.67;97.02;99527.63;1818859;77;21730;-74
2022/09/22 00:44:33;;;;;;;9.45;8.55;;;;;;;8.59;97.26;99520.48;1809026;78;21464;-74
2022/09/22 00:47:24;;;;;;;8.70;7.90;;;;;;;8.58;97.30;99526.79;1783088;78;21869;-74
2022/09/22 00:49:59;;;;;;;8.03;7.22;;;;;;;8.62;97.19;99525.98;1825652;78;21084;-73
2022/09/22 00:52:49;;;;;;;7.90;6.45;;;;;;;8.54;97.62;99529.93;1823605;77;21103;-73
2022/09/22 00:55:22;;;;;;;6.87;6.28;;;;;;;8.54;97.82;99533.91;1818726;78;21037;-74
2022/09/22 00:57:48;;;;;;;7.97;6.60;;;;;;;8.63;97.59;99532.91;1806911;78;21048;-73
2022/09/22 01:00:15;;;;;;;7.33;5.90;;;;;;;8.59;97.73;99523.13;1827540;78;21318;-73
2022/09/22 01:02:44;;;;;;;6.80;6.10;;;;;;;8.53;97.83;99521.64;1819625;77;21536;-71
2022/09/22 01:05:11;;;;;;;6.05;5.47;;;;;;;8.58;97.85;99529.94;1814968;77;21002;-73
2022/09/22 01:07:41;;;;;;;6.42;5.83;;;;;;;8.71;97.54;99528.14;1814083;78;22114;-73
2022/09/22 01:10:10;;;;;;;6.78;6.12;;;;;;;8.73;97.86;99529.66;1811230;77;21075;-74
2022/09/22 01:12:36;;;;;;;6.70;5.35;;;;;;;8.77;97.86;99526.16;1823077;77;21222;-72
2022/09/22 01:15:21;;;;;;;6.93;5.47;;;;;;;8.87;97.64;99523.41;1819572;78;21536;-73
2022/09/22 01:18:18;;;;;;;6.20;5.58;;;;;;;9.02;97.13;99517.77;1778434;79;21229;-73
2022/09/22 01:21:19;;;;;;;8.33;5.78;;;;;;;9.04;96.84;99524.59;1792933;78;21127;-72
2022/09/22 01:24:10;;;;;;;8.75;5.40;;;;;;;9.01;96.73;99524.90;1762714;80;21569;-74
2022/09/22 01:27:25;;;;;;;8.08;5.55;;;;;;;9.11;96.12;99520.77;1804161;77;21174;-74
2022/09/22 01:30:15;;;;;;;8.43;5.42;;;;;;;9.15;95.86;99519.95;1792665;79;21023;-73
2022/09/22 01:33:18;;;;;;;5.83;5.33;;;;;;;9.11;95.91;99519.45;1813204;78;21024;-72
2022/09/22 01:36:11;;;;;;;5.42;4.90;;;;;;;9.07;95.71;99519.45;1793130;78;21010;-73
2022/09/22 01:39:03;;;;;;;6.50;5.67;;;;;;;9.17;95.23;99516.13;1784181;78;21099;-73
2022/09/22 01:41:57;;;;;;;7.12;4.60;;;;;;;9.13;95.22;99517.45;1794144;78;21227;-73
2022/09/22 01:44:53;;;;;;;4.50;4.10;;;;;;;9.08;95.50;99520.27;1812930;77;20985;-73
2022/09/22 01:47:23;;;;;;;4.28;3.87;;;;;;;9.12;95.16;99513.17;1789986;78;21076;-75
2022/09/22 01:49:54;;;;;;;6.97;4.67;;;;;;;9.14;94.66;99513.83;1756358;80;21093;-73
2022/09/22 01:52:26;;;;;;;5.62;5.12;;;;;;;9.07;94.91;99519.95;1812595;78;21005;-71
2022/09/22 01:55:06;;;;;;;5.92;4.20;;;;;;;8.99;95.14;99518.94;1815150;78;21833;-74
2022/09/22 01:57:59;;;;;;;5.15;4.40;;;;;;;9.01;94.77;99512.97;1827427;77;20993;-73
2022/09/22 02:00:26;;;;;;;5.37;4.72;;;;;;;9.04;94.45;99504.71;1791444;79;21040;-71
2022/09/22 02:03:05;;;;;;;6.53;5.85;;;;;;;8.92;94.76;99515.27;1811343;78;21518;-73
2022/09/22 02:05:49;;;;;;;6.95;4.58;;;;;;;8.84;95.17;99516.08;1791774;78;21049;-74
2022/09/22 02:08:42;;;;;;;6.25;5.00;;;;;;;8.87;94.92;99515.45;1796140;77;22383;-74
2022/09/22 02:11:12;;;;;;;5.30;4.80;;;;;;;8.87;94.99;99516.28;1796866;78;21054;-73
2022/09/22 02:13:40;;;;;;;5.77;5.10;;;;;;;8.79;95.28;99518.41;1796238;78;20995;-72
2022/09/22 02:16:06;;;;;;;6.45;5.08;;;;;;;8.75;95.35;99513.58;1808015;78;21061;-73
2022/09/22 02:18:47;;;;;;;7.28;6.67;;;;;;;8.81;95.10;99517.75;1814898;78;21100;-72
2022/09/22 02:21:14;;;;;;;9.53;7.50;;;;;;;8.77;95.31;99515.09;1801615;78;21140;-74
2022/09/22 02:23:45;;;;;;;10.53;8.45;;;;;;;8.71;95.43;99517.08;1817816;78;21022;-73
2022/09/22 02:26:22;;;;;;;8.78;8.08;;;;;;;8.73;95.27;99519.06;1813723;78;21053;-75
2022/09/22 02:28:47;;;;;;;11.25;9.98;;;;;;;8.76;94.93;99516.58;1794700;78;21033;-73
2022/09/22 02:31:14;;;;;;;10.57;9.60;;;;;;;8.66;95.26;99522.02;1784013;78;21080;-74
2022/09/22 02:33:40;;;;;;;10.65;7.85;;;;;;;8.60;95.52;99520.02;1777842;79;21860;-75
2022/09/22 02:36:18;;;;;;;9.30;8.40;;;;;;;8.65;95.64;99519.02;1786997;78;22147;-72
2022/09/22 02:38:54;;;;;;;8.38;7.58;;;;;;;8.72;95.24;99513.42;1784695;78;21009;-73
2022/09/22 02:41:58;;;;;;;9.35;8.45;;;;;;;8.66;95.31;99510.92;1808973;78;21084;-72
2022/09/22 02:44:28;;;;;;;;;;;;;;;8.57;95.53;99511.88;1800327;78;21063;-71
2022/09/22 02:47:03;;;;;;;7.08;6.37;;;;;;;8.57;95.52;99505.77;1801489;78;21718;-71
2022/09/22 02:49:29;;;;;;;9.00;8.10;;;;;;;8.56;95.50;99504.13;1811048;78;21025;-71
2022/09/22 02:51:56;;;;;;;8.23;7.40;;;;;;;8.43;95.82;99497.95;1806538;79;21045;-70
2022/09/22 02:54:22;;;;;;;9.30;7.05;;;;;;;8.31;96.16;99500.52;1755935;78;21167;-72
2022/09/22 02:56:49;;;;;;;11.03;6.87;;;;;;;8.30;96.28;99501.50;1803278;78;21534;-72
2022/09/22 02:59:15;;;;;;;7.83;7.08;;;;;;;8.36;96.10;99496.88;1810331;77;21129;-70
2022/09/22 03:01:42;;;;;;;8.20;7.40;;;;;;;8.31;96.31;99497.37;1796378;78;21054;-71
2022/09/22 03:04:08;;;;;;;8.93;6.67;;;;;;;8.23;96.61;99498.67;1785902;78;21054;-72
2022/09/22 03:06:35;;;;;;;7.62;6.75;;;;;;;8.24;96.75;99500.31;1798687;78;21013;-72
2022/09/22 03:09:02;;;;;;;8.75;7.22;;;;;;;8.32;96.61;99501.66;1770266;79;21087;-72
2022/09/22 03:11:29;;;;;;;8.20;6.70;;;;;;;8.29;96.84;99503.33;1814707;77;21276;-72
2022/09/22 03:13:56;;;;;;;7.20;6.50;;;;;;;8.25;97.03;99502.81;1814443;78;21501;-72
2022/09/22 03:16:23;;;;;;;7.75;6.12;;;;;;;8.27;96.99;99510.09;1782593;78;21104;-72
2022/09/22 03:18:49;;;;;;;8.33;7.53;;;;;;;8.36;96.63;99514.91;1795499;78;21044;-72
2022/09/22 03:21:16;;;;;;;8.38;7.60;;;;;;;8.33;96.84;99517.08;1796858;78;21392;-74
2022/09/22 03:23:42;;;;;;;6.60;6.03;;;;;;;8.31;97.16;99513.76;1790005;79;21525;-69
2022/09/22 03:26:09;;;;;;;8.60;7.70;;;;;;;8.36;97.02;99513.59;1823290;77;21041;-72
2022/09/22 03:28:35;;;;;;;8.18;7.37;;;;;;;8.47;96.78;99519.13;1809468;78;21044;-72
2022/09/22 03:31:02;;;;;;;8.88;8.03;;;;;;;8.44;96.69;99518.11;1792155;79;21088;-70
2022/09/22 03:33:28;;;;;;;10.58;6.95;;;;;;;8.41;96.90;99522.39;1794108;80;20995;-71
2022/09/22 03:35:55;;;;;;;8.68;7.65;;;;;;;8.46;96.96;99515.66;1786117;78;21359;-71
2022/09/22 03:38:21;;;;;;;10.08;8.60;;;;;;;8.60;96.64;99517.37;1794242;78;21045;-71
2022/09/22 03:40:50;;;;;;;10.30;8.58;;;;;;;8.65;96.75;99521.20;1793925;78;21029;-73
2022/09/22 03:43:18;;;;;;;10.72;8.13;;;;;;;8.65;96.58;99522.52;1817476;78;21065;-70
2022/09/22 03:45:45;;;;;;;9.68;7.80;;;;;;;8.68;95.90;99527.16;1793727;78;21530;-71
2022/09/22 03:48:12;;;;;;;10.68;9.28;;;;;;;8.70;95.52;99531.30;1806074;77;21132;-73
2022/09/22 03:50:39;;;;;;;12.03;10.45;;;;;;;8.61;95.65;99532.25;1803020;78;21038;-72
2022/09/22 03:53:05;;;;;;;11.30;8.63;;;;;;;8.51;95.99;99535.03;1826224;78;21549;-73
2022/09/22 03:55:33;;;;;;;11.85;8.50;;;;;;;8.53;96.36;99535.70;1792190;79;21014;-70
2022/09/22 03:58:00;;;;;;;10.28;9.18;;;;;;;8.67;96.29;99536.90;1825662;78;21025;-72
2022/09/22 04:00:27;;;;;;;12.35;10.60;;;;;;;8.71;96.12;99539.59;1790405;79;21089;-71
2022/09/22 04:02:53;;;;;;;11.45;9.15;;;;;;;8.70;96.09;99541.06;1789659;79;21572;-70
2022/09/22 04:05:20;;;;;;;11.05;9.85;;;;;;;8.74;95.72;99538.42;1813796;78;21020;-71
2022/09/22 04:07:47;;;;;;;11.48;10.28;;;;;;;8.83;95.48;99538.79;1813292;78;21045;-71
2022/09/22 04:10:14;;;;;;;14.95;10.60;;;;;;;8.81;95.57;99534.97;1785944;78;21020;-72
2022/09/22 04:12:42;;;;;;;10.23;9.13;;;;;;;8.81;95.98;99534.15;1775680;79;21065;-73
2022/09/22 04:15:09;;;;;;;10.13;9.08;;;;;;;8.88;95.55;99534.31;1817545;78;20981;-71
2022/09/22 04:17:36;;;;;;;11.85;9.03;;;;;;;9.00;94.98;99535.66;1798153;78;21025;-73
2022/09/22 04:20:04;;;;;;;11.43;10.18;;;;;;;9.00;95.23;99538.30;1788442;78;21025;-73
2022/09/22 04:22:31;;;;;;;10.72;9.00;;;;;;;9.02;95.38;99545.59;1791178;78;21045;-71
2022/09/22 04:24:57;;;;;;;10.53;9.53;;;;;;;9.09;94.95;99544.46;1784313;79;21793;-74
2022/09/22 04:27:23;;;;;;;13.68;10.53;;;;;;;9.18;94.77;99542.98;1808556;77;21489;-74
2022/09/22 04:29:50;;;;;;;11.75;10.55;;;;;;;9.18;94.58;99544.31;1807995;78;21032;-74
2022/09/22 04:32:17;;;;;;;11.20;9.43;;;;;;;9.12;94.41;99552.92;1826363;78;21513;-74
2022/09/22 04:34:43;;;;;;;9.80;7.97;;;;;;;9.06;94.27;99552.25;1803280;78;21593;-73
2022/09/22 04:37:10;;;;;;;11.40;9.13;;;;;;;9.03;93.99;99544.11;1795954;78;21056;-73
2022/09/22 04:39:37;;;;;;;10.18;8.88;;;;;;;9.02;93.96;99544.27;1812825;78;20952;-72
2022/09/22 04:42:04;;;;;;;13.20;10.35;;;;;;;8.96;94.57;99554.20;1792116;78;21076;-72
2022/09/22 04:44:31;;;;;;;15.63;9.98;;;;;;;8.92;94.98;99547.06;1823133;78;21043;-73
2022/09/22 04:46:58;;;;;;;9.93;8.63;;;;;;;8.96;94.61;99555.52;1794275;78;21112;-74
2022/09/22 04:49:24;;;;;;;12.23;9.05;;;;;;;9.00;94.39;99550.23;1817839;78;21209;-74
2022/09/22 04:51:52;;;;;;;10.00;8.95;;;;;;;8.93;94.72;99552.71;1796803;78;21029;-73
2022/09/22 04:54:18;;;;;;;10.98;8.68;;;;;;;8.89;95.20;99555.36;1827969;78;21029;-73
2022/09/22 04:56:45;;;;;;;11.40;8.03;;;;;;;8.92;95.10;99551.03;1781504;78;21031;-73
2022/09/22 04:59:11;;;;;;;8.40;7.53;;;;;;;9.01;94.90;99555.38;1830286;78;21080;-74
2022/09/22 05:01:38;;;;;;;10.38;8.80;;;;;;;8.97;95.01;99557.19;1827885;78;21243;-73
2022/09/22 05:04:05;;;;;;;10.72;8.70;;;;;;;8.90;95.21;99555.67;1823779;77;20982;-73
2022/09/22 05:06:31;;;;;;;10.72;9.10;;;;;;;8.91;95.12;99559.17;1820190;78;21030;-73
2022/09/22 05:08:58;;;;;;;9.63;8.63;;;;;;;8.95;94.96;99558.67;1816615;78;21020;-74
2022/09/22 05:11:24;;;;;;;10.58;9.48;;;;;;;8.87;95.24;99559.98;1794430;78;20965;-75
2022/09/22 05:13:51;;;;;;;9.33;7.70;;;;;;;8.79;95.55;99558.14;1789577;78;21145;-73
2022/09/22 05:16:18;;;;;;;9.33;8.40;;;;;;;8.81;95.49;99565.44;1812736;78;21056;-72
2022/09/22 05:18:45;;;;;;;8.88;7.95;;;;;;;8.84;95.34;99566.42;1788133;78;21056;-73
2022/09/22 05:21:12;;;;;;;10.38;9.28;;;;;;;8.79;95.55;99568.73;1816041;78;21047;-75
2022/09/22 05:23:38;;;;;;;8.68;7.78;;;;;;;8.74;95.87;99578.16;1797205;78;20985;-76
2022/09/22 05:26:05;;;;;;;12.05;8.35;;;;;;;8.77;95.71;99582.64;1809989;78;21603;-74
2022/09/22 05:28:32;;;;;;;11.55;9.50;;;;;;;8.84;95.39;99578.34;1829063;77;21048;-76
2022/09/22 05:30:58;;;;;;;11.22;9.50;;;;;;;8.79;95.55;99587.28;1822769;77;21568;-75
2022/09/22 05:33:25;;;;;;;12.75;8.53;;;;;;;8.73;95.77;99582.63;1830625;78;21076;-74
2022/09/22 05:35:52;;;;;;;11.03;8.88;;;;;;;8.78;95.71;99588.76;1824943;78;21049;-75
2022/09/22 05:38:18;;;;;;;10.05;8.75;;;;;;;8.82;95.71;99592.74;1777345;78;21718;-74
2022/09/22 05:40:48;;;;;;;10.10;9.10;;;;;;;8.80;96.04;99586.78;1786305;79;21013;-77
2022/09/22 05:43:15;;;;;;;9.45;8.45;;;;;;;8.78;96.07;99588.76;1797007;79;21017;-75
2022/09/22 05:45:43;;;;;;;11.63;9.25;;;;;;;8.84;96.00;99585.46;1799499;78;21025;-74
2022/09/22 05:48:10;;;;;;;12.58;11.38;;;;;;;8.97;95.60;99586.34;1789027;80;21080;-73
2022/09/22 05:50:37;;;;;;;12.40;11.05;;;;;;;8.94;95.63;99583.50;1810112;78;21124;-76
2022/09/22 05:53:05;;;;;;;11.35;10.15;;;;;;;8.90;95.82;99589.29;1799906;77;21011;-75
2022/09/22 05:55:34;;;;;;;13.60;11.18;;;;;;;8.93;95.63;99585.83;1790524;78;20990;-75
2022/09/22 05:58:01;;;;;;;12.88;10.68;;;;;;;9.01;95.58;99582.37;1814058;78;21033;-76
2022/09/22 06:00:29;;;;;;;12.10;10.90;;;;;;;9.01;95.73;99583.70;1798013;79;21066;-80
2022/09/22 06:02:56;;;;;;;11.35;9.78;;;;;;;8.97;95.55;99588.98;1769998;79;21879;-80
2022/09/22 06:05:22;;;;;;;11.80;10.03;;;;;;;8.99;95.58;99580.38;1795195;79;20977;-80
2022/09/22 06:08:02;;;;;;;11.18;10.00;;;;;;;9.08;95.51;99586.52;1810851;77;21019;-81
2022/09/22 06:10:29;;;;;;;13.03;10.38;;;;;;;9.05;95.55;99587.67;1825039;77;21026;-79
2022/09/22 06:13:07;;;;;;;12.43;9.38;;;;;;;9.00;95.63;99584.67;1796484;79;21024;-81
2022/09/22 06:15:35;;;;;;;11.63;10.10;;;;;;;9.08;95.41;99578.56;1805513;78;21229;-81
2022/09/22 06:18:06;;;;;;;13.22;10.25;;;;;;;9.13;95.34;99589.02;1824802;77;21100;-79
2022/09/22 06:20:35;;;;;;;12.35;11.15;;;;;;;9.12;95.48;99586.05;1787929;79;20985;-80
2022/09/22 06:23:01;;;;;;;10.08;8.83;;;;;;;9.11;95.70;99588.34;1799147;79;20993;-80
2022/09/22 06:25:28;;;;;;;9.98;8.73;;;;;;;9.19;95.37;99586.21;1780802;78;21012;-79
2022/09/22 06:28:04;;;;;;;11.55;10.32;;;;;;;9.30;94.97;99583.25;1813721;78;21218;-79
2022/09/22 06:30:33;;;;;;;12.98;9.60;;;;;;;9.31;94.99;99590.23;1827824;78;21014;-78
2022/09/22 06:33:01;;;;;;;11.75;8.13;;;;;;;9.28;94.93;99585.75;1791470;78;21026;-80
2022/09/22 06:35:35;;;;;;;9.43;8.05;;;;;;;9.33;94.65;99577.64;1799753;79;20997;-79
2022/09/22 06:37:59;;;;;;;10.08;9.03;;;;;;;9.46;94.29;99578.45;1791530;78;21066;-79
2022/09/22 06:40:28;;;;;;;10.50;8.58;;;;;;;9.47;94.26;99581.95;1834997;78;21072;-79
2022/09/22 06:42:58;;;;;;;9.35;8.40;;;;;;;9.47;94.60;99576.15;1828591;77;21006;-78
2022/09/22 06:45:25;;;;;;;8.80;7.87;;;;;;;9.62;94.58;99577.66;1796918;79;21061;-80
2022/09/22 06:47:57;;;;;;;10.53;9.10;;;;;;;9.83;93.90;99582.42;1831698;78;21032;-77
2022/09/22 06:50:26;;;;;;;12.40;9.30;;;;;;;9.85;93.23;99587.09;1795490;78;21115;-80
2022/09/22 06:53:02;;;;;;;9.03;8.20;;;;;;;9.86;93.17;99586.59;1827753;78;21167;-81
2022/09/22 06:55:29;;;;;;;9.55;8.03;;;;;;;9.93;92.72;99592.39;1826613;78;20990;-80
2022/09/22 06:57:59;;;;;;;9.53;8.53;;;;;;;10.07;92.33;99593.52;1798783;79;20993;-80
2022/09/22 07:00:31;;;;;;;9.35;8.45;;;;;;;10.10;92.21;99593.20;1816333;78;20980;-80
2022/09/22 07:03:39;;;;;;;8.98;8.10;;;;;;;10.04;92.17;99594.70;1823280;77;21029;-77
2022/09/22 07:06:05;;;;;;;8.75;7.58;;;;;;;10.04;92.09;99599.16;1787525;79;21867;-77
2022/09/22 07:08:33;;;;;;;8.65;7.80;;;;;;;10.10;91.65;99594.53;1799704;78;21029;-78
2022/09/22 07:11:06;;;;;;;10.95;8.70;;;;;;;10.03;91.65;99594.86;1786343;78;21239;-78
2022/09/22 07:13:41;;;;;;;8.20;7.25;;;;;;;9.98;92.17;99592.70;1780830;80;21012;-78
2022/09/22 07:16:11;;;;;;;8.88;6.87;;;;;;;10.07;91.88;99600.16;1793381;79;21564;-78
2022/09/22 07:18:41;;;;;;;8.23;7.45;;;;;;;10.18;91.46;99605.63;1805010;78;21107;-78
2022/09/22 07:21:15;;;;;;;8.05;7.22;;;;;;;10.15;91.44;99601.98;1805220;78;21005;-78
2022/09/22 07:23:43;;;;;;;;;;;;;;;10.12;91.26;99602.30;1777506;79;21514;-77
2022/09/22 07:26:13;;;;;;;7.05;6.28;;;;;;;10.20;91.19;99593.02;1803329;79;20126;-78
2022/09/22 07:28:39;;;;;;;8.35;7.58;;;;;;;10.31;91.14;99601.14;1803872;77;22345;-74
2022/09/22 07:31:09;;;;;;;6.62;5.87;;;;;;;10.35;91.25;99598.47;1805834;79;22180;-74
2022/09/22 07:33:37;;;;;;;9.05;5.78;;;;;;;10.42;90.49;99598.95;1801736;78;21514;-74
2022/09/22 07:36:10;;;;;;;7.55;6.33;;;;;;;10.65;90.29;99597.39;1796543;79;21041;-74
2022/09/22 07:38:37;;;;;;;8.83;6.20;;;;;;;10.84;90.18;99596.98;1777982;79;21022;-74
2022/09/22 07:41:18;;;;;;;7.15;6.45;;;;;;;10.97;89.84;99605.22;1769755;80;21040;-74
2022/09/22 07:43:46;;;;;;;6.10;5.60;;;;;;;11.08;89.12;99596.00;1791413;79;21102;-75
2022/09/22 07:46:12;;;;;;;7.72;6.92;;;;;;;11.29;88.27;99598.55;1778428;79;21490;-72
2022/09/22 07:48:50;;;;;;;7.87;6.80;;;;;;;11.35;87.06;99601.32;1802892;78;21020;-74
2022/09/22 07:51:20;;;;;;;8.00;6.95;;;;;;;11.30;87.06;99593.55;1786860;79;21068;-75
2022/09/22 07:53:53;;;;;;;;;;;;;;;11.27;86.27;99601.89;1778460;80;21569;-75
2022/09/22 07:56:26;;;;;;;7.40;6.70;;;;;;;11.29;85.36;99595.89;1786649;80;21116;-77
2022/09/22 07:58:52;;;;;;;8.05;7.25;;;;;;;11.19;85.62;99596.13;1770805;79;21793;-75
2022/09/22 08:01:21;;;;;;;8.63;7.25;;;;;;;11.14;85.86;99589.16;1780912;78;21034;-77
2022/09/22 08:03:47;;;;;;;6.62;6.00;;;;;;;11.13;86.40;99591.52;1792133;79;20997;-75
2022/09/22 08:06:15;;;;;;;6.70;6.00;;;;;;;11.31;86.51;99588.56;1778178;80;21001;-77
2022/09/22 08:08:52;;;;;;;8.30;7.08;;;;;;;11.52;86.14;99588.73;1755856;80;21136;-76
2022/09/22 08:11:22;;;;;;;7.45;6.75;;;;;;;11.67;86.70;99583.99;1790096;79;20994;-75
2022/09/22 08:14:00;;;;;;;7.08;6.03;;;;;;;11.86;86.25;99588.81;1768673;80;21318;-75
2022/09/22 08:16:31;;;;;;;7.28;6.53;;;;;;;12.07;85.70;99581.50;1736241;81;21519;-75
2022/09/22 08:19:01;;;;;;;7.15;6.53;;;;;;;12.30;84.26;99582.72;1784916;80;21069;-77
2022/09/22 08:21:32;;;;;;;6.90;6.30;;;;;;;12.36;83.85;99587.83;1754214;81;21591;-76
2022/09/22 08:23:59;;;;;;;7.95;7.15;;;;;;;12.50;82.22;99586.20;1761044;79;21573;-77
2022/09/22 08:26:26;;;;;;;7.33;6.53;;;;;;;12.61;81.27;99591.03;1730025;81;21096;-75
2022/09/22 08:28:54;;;;;;;7.80;7.10;;;;;;;12.70;81.00;99591.78;1777701;79;21069;-78
2022/09/22 08:31:23;;;;;;;8.03;7.25;;;;;;;12.69;81.01;99590.96;1769163;80;21028;-76
2022/09/22 08:33:51;;;;;;;7.60;6.90;;;;;;;12.69;80.52;99594.95;1769604;80;22183;-75
2022/09/22 08:36:17;;;;;;;9.00;8.10;;;;;;;12.63;79.47;99590.34;1775488;80;21392;-76
2022/09/22 08:38:48;;;;;;;7.67;6.80;;;;;;;12.54;80.22;99590.14;1772409;80;21084;-74
2022/09/22 08:41:26;;;;;;;8.18;7.37;;;;;;;12.58;80.32;99598.91;1772829;80;21042;-77
2022/09/22 08:44:00;;;;;;;7.80;7.00;;;;;;;12.67;80.31;99591.66;1771452;80;22216;-77
2022/09/22 08:46:32;;;;;;;7.45;6.70;;;;;;;12.68;80.32;99591.95;1767966;80;21037;-73
2022/09/22 08:52:47;;;;;;;6.35;5.55;;;;;;;12.69;79.44;99589.63;1756392;80;21045;-76
2022/09/22 08:55:23;;;;;;;6.37;5.62;;;;;;;12.71;78.40;99593.42;1771313;80;21095;-72
2022/09/22 08:57:58;;;;;;;6.00;5.40;;;;;;;12.64;77.98;99592.01;1778253;79;21135;-71
2022/09/22 09:00:26;;;;;;;6.72;6.10;;;;;;;12.52;77.81;99582.84;1765017;80;21196;-74
2022/09/22 09:03:29;;;;;;;5.78;5.28;;;;;;;12.47;78.08;99590.55;1771184;80;21502;-74
2022/09/22 09:06:02;;;;;;;6.40;5.80;;;;;;;12.41;78.32;99592.62;1786979;78;21016;-74
2022/09/22 09:09:09;;;;;;;5.50;4.83;;;;;;;12.53;78.94;99599.13;1791742;78;21006;-73
2022/09/22 09:11:45;;;;;;;5.20;4.45;;;;;;;12.56;78.22;99596.11;1697670;83;21209;-72
2022/09/22 09:14:45;;;;;;;4.30;3.90;;;;;;;12.48;78.10;99593.04;1713145;81;21165;-74
2022/09/22 09:17:29;;;;;;;4.40;4.00;;;;;;;12.42;76.93;99593.78;1737354;78;21092;-77
2022/09/22 09:20:04;;;;;;;4.28;3.80;;;;;;;12.33;77.34;99592.20;1792396;78;21025;-77
2022/09/22 09:22:39;;;;;;;6.37;4.15;;;;;;;12.39;77.28;99590.13;1798557;78;21040;-75
2022/09/22 09:25:26;;;;;;;4.33;3.80;;;;;;;12.40;77.44;99590.47;1795714;78;21092;-73
2022/09/22 09:28:00;;;;;;;4.90;4.40;;;;;;;12.37;78.21;99586.31;1804266;78;21818;-76
2022/09/22 09:30:27;;;;;;;4.10;3.70;;;;;;;12.41;77.46;99588.11;1794350;78;21470;-73
2022/09/22 09:33:00;;;;;;;4.03;3.62;;;;;;;12.39;76.91;99592.29;1781310;78;21044;-72
2022/09/22 09:35:42;;;;;;;4.20;3.05;;;;;;;12.34;77.05;99591.18;1793884;78;21068;-76
2022/09/22 09:38:18;;;;;;;3.60;3.22;;;;;;;12.39;76.33;99594.12;1801134;78;21072;-77
2022/09/22 09:40:48;;;;;;;7.90;3.67;;;;;;;12.34;75.62;99588.52;1781423;79;22110;-77
2022/09/22 09:43:15;;;;;;;4.12;3.52;;;;;;;12.20;76.45;99588.83;1787968;79;21581;-77
2022/09/22 09:45:56;;;;;;;4.12;3.75;;;;;;;12.14;77.17;99591.72;1760103;79;21572;-77
2022/09/22 09:48:55;;;;;;;4.45;4.05;;;;;;;12.10;77.21;99594.94;1785585;78;21100;-78
2022/09/22 09:51:22;;;;;;;5.28;4.10;;;;;;;12.10;77.48;99592.28;1792363;78;21107;-76
2022/09/22 09:53:49;;;;;;;4.97;4.42;;;;;;;12.04;77.28;99599.66;1774851;79;21627;-77
2022/09/22 09:56:27;;;;;;;4.85;4.45;;;;;;;11.95;78.11;99595.72;1797358;78;21068;-77
2022/09/22 10:01:52;;;;;;;4.15;3.70;;;;;;;11.89;78.42;99596.45;1788135;79;21009;-77
2022/09/22 10:04:34;;;;;;;4.40;4.00;;;;;;;12.02;78.09;99595.02;1793737;78;21037;-76
2022/09/22 10:07:13;;;;;;;4.50;4.03;;;;;;;12.04;77.86;99599.66;1745720;79;21537;-74
2022/09/22 10:09:39;;;;;;;4.97;4.40;;;;;;;11.96;78.00;99597.91;1755048;79;21048;-74
2022/09/22 10:12:10;;;;;;;4.70;4.00;;;;;;;11.92;79.05;99600.09;1756988;79;21089;-73
2022/09/22 10:14:36;;;;;;;4.40;3.98;;;;;;;11.90;79.69;99602.59;1722478;79;21519;-74
2022/09/22 10:17:08;;;;;;;4.62;3.90;;;;;;;11.96;80.48;99608.04;1745131;79;21100;-74
2022/09/22 10:19:35;;;;;;;5.22;4.62;;;;;;;12.05;80.78;99604.78;1720222;79;21139;-75
2022/09/22 10:22:26;;;;;;;5.53;4.42;;;;;;;11.96;81.50;99606.70;1763993;79;21019;-74
2022/09/22 10:25:00;;;;;;;5.85;4.80;;;;;;;11.79;82.08;99615.81;1751145;79;21038;-74
2022/09/22 10:29:34;;;;;;;4.80;4.37;;;;;;;11.63;83.68;99611.94;1887404;75;29112;-73
2022/09/22 10:32:15;;;;;;;4.90;4.08;;;;;;;11.51;83.98;99615.03;1859006;77;20988;-75
2022/09/22 10:34:49;;;;;;;4.62;4.22;;;;;;;11.36;84.50;99611.48;1845030;75;21848;-75
2022/09/22 10:37:25;;;;;;;5.10;4.58;;;;;;;11.29;85.72;99614.00;1849722;77;21025;-75
2022/09/22 10:39:55;;;;;;;5.50;5.00;;;;;;;11.31;86.15;99618.64;1849246;75;21009;-73
2022/09/22 10:42:35;;;;;;;5.67;4.72;;;;;;;11.21;86.46;99616.20;1842395;75;21084;-76
2022/09/22 10:45:14;;;;;;;5.15;4.65;;;;;;;11.11;87.01;99617.45;1812749;78;21113;-75
2022/09/22 10:48:15;;;;;;;5.42;4.85;;;;;;;11.17;87.24;99616.23;1810692;78;21066;-75
2022/09/22 10:51:03;;;;;;;6.78;6.10;;;;;;;11.26;87.16;99617.03;1780105;79;21068;-75
2022/09/22 10:53:59;;;;;;;5.78;5.20;;;;;;;11.20;87.41;99618.55;1738714;78;21124;-75
2022/09/22 10:56:42;;;;;;;7.15;5.95;;;;;;;11.17;87.42;99616.23;1764648;78;21021;-74
2022/09/22 10:59:32;;;;;;;6.35;5.47;;;;;;;11.28;87.14;99616.83;1807707;78;21029;-74
2022/09/22 11:02:19;;;;;;;6.47;5.20;;;;;;;11.32;87.44;99611.48;1783921;78;21087;-74
2022/09/22 11:05:09;;;;;;;5.58;5.08;;;;;;;11.30;87.43;99609.50;1773179;79;21084;-74
2022/09/22 11:14:32;;;;;;;6.22;5.62;;;;;;;11.33;86.30;99608.66;1785256;78;21022;-73
2022/09/22 11:17:30;;;;;;;5.33;4.83;;;;;;;11.26;86.50;99603.73;1776121;78;21788;-74
2022/09/22 11:20:21;;;;;;;5.50;4.80;;;;;;;11.26;86.60;99599.74;1786706;78;21108;-75
2022/09/22 11:23:23;;;;;;;5.90;4.87;;;;;;;11.31;86.63;99601.35;1787072;78;21005;-73
2022/09/22 11:26:03;;;;;;;6.65;5.22;;;;;;;11.28;86.26;99600.88;1767863;80;21088;-74
2022/09/22 11:29:10;;;;;;;4.50;4.10;;;;;;;11.24;86.44;99599.06;1814322;77;21057;-74
2022/09/22 11:32:08;;;;;;;5.60;5.00;;;;;;;11.36;86.41;99602.17;1777311;78;21566;-74
2022/09/22 11:34:49;;;;;;;7.03;5.53;;;;;;;11.39;86.20;99595.97;1773261;78;21034;-74
2022/09/22 11:37:24;;;;;;;6.20;5.60;;;;;;;11.35;86.21;99596.00;1816005;78;21013;-71
2022/09/22 11:40:02;;;;;;;5.83;5.22;;;;;;;11.33;86.47;99593.20;1749047;80;21076;-72
2022/09/22 11:42:35;;;;;;;7.45;6.33;;;;;;;11.40;85.31;99594.16;1797247;78;21029;-71
2022/09/22 11:45:28;;;;;;;6.33;5.72;;;;;;;11.38;85.45;99591.67;1779814;78;21089;-71
2022/09/22 11:48:35;;;;;;;8.38;6.65;;;;;;;11.31;85.74;99585.91;1770601;79;21009;-71
2022/09/22 11:51:17;;;;;;;6.85;5.58;;;;;;;11.29;86.12;99587.41;1771982;79;21013;-70
2022/09/22 11:54:01;;;;;;;6.12;5.35;;;;;;;11.43;86.35;99583.15;1772685;78;21056;-71
2022/09/22 11:56:48;;;;;;;6.35;5.70;;;;;;;11.54;85.65;99582.73;1801514;77;21076;-71
2022/09/22 11:59:50;;;;;;;6.58;5.05;;;;;;;11.55;85.41;99579.09;1773990;79;21089;-70
2022/09/22 12:02:51;;;;;;;7.30;5.75;;;;;;;11.58;85.57;99580.04;1783106;78;21057;-71
2022/09/22 12:05:38;;;;;;;7.90;5.15;;;;;;;11.79;85.28;99578.55;1763241;78;21041;-72
2022/09/22 12:08:10;;;;;;;4.90;4.50;;;;;;;11.90;85.62;99578.16;1777714;79;21057;-70
2022/09/22 12:10:43;;;;;;;5.37;4.25;;;;;;;11.99;85.04;99584.21;1777168;79;21081;-71
2022/09/22 12:13:20;;;;;;;4.53;3.90;;;;;;;12.02;83.86;99581.71;1802016;78;21787;-70
2022/09/22 12:16:21;;;;;;;4.15;3.60;;;;;;;12.18;83.37;99586.86;1785312;79;21005;-70
2022/09/22 12:18:56;;;;;;;5.00;4.40;;;;;;;12.25;83.68;99581.65;1777523;78;21049;-73
2022/09/22 12:24:23;;;;;;;4.15;3.58;;;;;;;12.32;83.62;99580.73;1772022;78;21045;-73
2022/09/22 12:26:50;;;;;;;4.83;4.33;;;;;;;12.48;82.71;99588.22;1800660;78;21236;-72